Air Resources Laboratory banner image
Air Resources Laboratory web site National Oceanic and Atmospheric Administration (NOAA)

ca metar


KAAT 180655Z AUTO 00000KT 10SM CLR M04/M05 A3019 RMK AO2 SLP236 T10441050=
KACV 180653Z AUTO 00000KT 1SM R32/3500V4500FT BR OVC002 07/07 A3007 RMK AO2
 SLP189 T00720072=
KAPC 180654Z AUTO 00000KT 1/4SM FG FU VV013 02/01 A3007 RMK AO2 SLP173
 T00170011=
KAVX 180651Z AUTO 00000KT 8SM CLR 12/11 A3008 RMK AO2 SLP174 T01220111 $=
KBAB 180658Z 00000KT 2SM FU OVC008 03/M03 A3004 RMK AO2A FU OVC008 SLP176
 T00341028 $=
KBFL 180654Z AUTO 00000KT 5SM HZ CLR 12/M02 A3004 RMK AO2 SLP168 T01171017 $=
KBIH 180656Z AUTO 33006KT 10SM CLR M01/M13 A3014 RMK AO2 SLP194 T10061128=
KBLH 180652Z AUTO 00000KT 10SM CLR 11/M04 A3001 RMK AO2 SLP160 T01061044 $=
KBLU 180652Z AUTO 05006KT 10SM CLR 09/M09 A3015 RMK AO2 SLP162 T00941094=
KBUR 180653Z 00000KT 7SM FEW110 14/10 A3006 RMK AO2 SLP169 T01440100 $=
KBYS 180655Z AUTO 20002KT 8SM SCT220 06/M14 A3008 RMK AO2 SLP186 WND DATA ESTMD
 T00591136=
KCCR 180653Z AUTO 00000KT 1 3/4SM HZ OVC022 06/02 A3007 RMK AO2 SLP167
 T00610017 $=
KCEC 180656Z AUTO 00000KT 4SM BR OVC003 08/07 A3008 RMK AO2 SLP187 T00780067=
KCIC 180655Z AUTO 00000KT 3SM OVC037 07/M06 A3006 RMK AO1=
KCMA 180655Z 00000KT 4SM HZ CLR 14/10 A3004 RMK AO2 SLP182 T01390100=
KCNO 180653Z 00000KT 5SM HZ CLR 13/10 A3007 RMK AO2 SLP180 T01330100=
KCQT 180647Z AUTO 00000KT 5SM HZ CLR 16/13 A3005 RMK AO2 SLP175 T01560128 $=
KCRQ 180653Z 09003KT 9SM CLR 14/10 A3004 RMK AO2 SLP172 T01390100=
KCZZ 180652Z AUTO 05004KT 05/M07 A3005 RMK AO1 SLP160 T00501072=
KDAG 180650Z AUTO 24003KT 10SM CLR 08/M09 A3005 RMK AO2 SLP165 T00781094=
KEDW 180658Z AUTO 22005KT 10SM CLR 08/M04 A3004 RMK AO2 SLP169 T00811040=
KEED 180656Z AUTO 25006KT CLR 13/M08 A3004 RMK AO2 SLP156 T01331078=
KFAT 180655Z 00000KT 3SM HZ FU CLR 08/03 A3004=
KFCH 180655Z AUTO 00000KT 1 3/4SM HZ OVC016 08/03 A3005 RMK A01=
KFOT 180655Z AUTO 14004KT 2SM OVC002 05/05 A3007 RMK AO1=
KFUL 180653Z AUTO 08004KT 6SM HZ FEW010 16/ A3005 RMK AO2 SLP174 T0161 $=
KHHR 180653Z AUTO 00000KT 5SM CLR 16/14 A3006 RMK AO2 SLP178 T01610139 $=
KHJO 180653Z AUTO 34004KT 2 1/2SM HZ CLR 07/03 A3005 RMK AO2 SLP179 T00720033=
KHWD 180654Z 06005KT 3SM HZ FU CLR 09/05 A3007 RMK AO2 SLP191 T00890050=
KIPL 180653Z AUTO 28005KT 10SM CLR 11/04 A3001 RMK AO2 SLP162 T01110044=
KIZA 180655Z AUTO 00000KT 5SM BR CLR 10/10 A3006 RMK AO2=
KLAX 180653Z 02004KT 10SM FEW013 BKN120 17/14 A3006 RMK AO2 SLP176 T01670139=
KLGB 180653Z 00000KT 4SM BR CLR 16/14 A3006 RMK AO2 SLP178 T01560139 $=
KLPC 180656Z AUTO 09003KT 7SM CLR 09/08 A3006 RMK AO2 SLP183 T00940083=
KLVK 180653Z AUTO 10003KT 1 3/4SM HZ FU CLR 06/01 A3006 RMK AO2 SLP179
 T00560006=
KMAE 180653Z AUTO 26004KT 2SM HZ CLR 06/02 A3006 RMK AO2 SLP178 T00560017=
KMCC 180650Z AUTO 00000KT 1 3/4SM HZ BKN003 05/00 A3007 RMK AO2=
KMCE 180653Z AUTO 00000KT 1 1/2SM HZ CLR 07/01 A3004 RMK AO2 SLP172 T00670011=
KMER 180655Z AUTO 00000KT 1 3/4SM CLR 04/02 A3005 RMK AO1=
KMHR 180645Z 00000KT 2SM FU HZ SCT014 03/M01 A3004=
KMHS 180656Z AUTO 00000KT 7SM CLR 00/M04 A3013 RMK AO2 SLP225 T00001044=
KMHV 180640Z AUTO 00000KT 10SM SCT033 SCT039 09/M15 A3006 RMK A01=
KMMH 180655Z AUTO 35003KT 10SM CLR M02/M13 A3023 RMK AO2 T10171130=
KMOD 180653Z AUTO 00000KT 3/4SM BR CLR 05/03 A3004 RMK AO2 SLP174 T00500028=
KMRY 180654Z AUTO 11004KT 6SM HZ FU OVC014 12/08 A3008 RMK AO2 SLP196 T01220083=
KMYF 180653Z AUTO 00000KT 5SM BR CLR 14/12 A3006 RMK AO2 SLP175 T01390117=
KMYV 180653Z AUTO 00000KT 1 1/4SM BR OVC015 02/M01 A3006 RMK AO2 SLP184
 T00171006=
KNFG 180655Z AUTO 00000KT 10SM CLR 09/09 A3006 RMK AO2 SLP178 T00940089=
KNID 180656Z AUTO 00000KT 10SM CLR 05/M15 A3006 RMK AO2 SLP182 T00501150 $=
KNJK 180656Z AUTO 28007KT 8SM CLR 11/M06 A3003 RMK AO2 SLP184 T01111061 $=
KNKX 180655Z 00000KT 10SM CLR 13/08 A3005 RMK AO2 SLP172 T01280083 $=
KNRS 180656Z AUTO 08003KT 8SM CLR 12/09 A3006 RMK AO2 SLP178 T01170094=
KNSI 180657Z AUTO 29005KT 4SM HZ CLR 12/ A3005 RMK AO2 SLP171 T0122 $=
KNTD 180657Z 35003KT 5SM BR SCT180 BKN280 13/12 A3006 RMK AO2 SLP179 T01330117
 $=
KNUQ 180656Z 20003KT 4SM FU CLR 09/07 A3008 RMK AO2 SLP188 T00890072=
KO54 180655Z AUTO 00000KT 10SM OVC043 02/M04 A3010 RMK AO1=
KOAK 180653Z 05004KT 3SM BR BKN019 06/05 A3008 RMK AO2 SLP183 FU BKN019
 T00560050=
KOKB 180652Z AUTO 00000KT 4SM BR CLR 11/09 A3005 RMK AO2 SLP175 T01060094=
KONT 180653Z 00000KT 10SM FEW015 BKN200 OVC250 14/07 A3006 RMK AO2 SLP173
 T01390072=
KOVE 180653Z AUTO 00000KT 1 1/4SM HZ OVC020 07/M02 A3007 RMK AO2 SLP185
 T00671017 TSNO=
KOXR 180651Z AUTO 05003KT 6SM HZ CLR 14/11 A3005 RMK AO2 SLP174 T01390111=
KPMD 180653Z AUTO 19005KT 10SM CLR 10/M07 A3007 RMK AO2 SLP170 T01001072=
KPRB 180653Z AUTO 00000KT 7SM CLR 07/04 A3005 RMK AO2 SLP176 T00720039=
KPSP 180653Z AUTO 33006KT 10SM CLR 14/M01 A3004 RMK AO2 SLP173 T01441006=
KPTV 180656Z AUTO 12004KT 4SM HZ 06/01 A3006 RMK AO2 SLP193 T00610006 402280028
 $=
KRAL 180653Z AUTO 08003KT 10SM CLR 13/06 A3007 RMK AO2 SLP169 T01280056=
KRBL 180654Z AUTO 31005KT 7SM OVC046 04/M03 A3007 RMK AO2 SLP180 T00441033=
KRDD 180653Z AUTO 00000KT 4SM HZ FU OVC070 04/M03 A3006 RMK AO2 SLP178
 T00441028=
KRIV 180658Z AUTO 00000KT 10SM FEW180 10/02 A3006 RMK AO2 SLP174 T01010020 PNO
 $=
KRNM 180653Z AUTO 09003KT 10SM CLR 07/M03 A3006 RMK AO2 SLP170 T00721033 $=
KSAC 180653Z AUTO 00000KT 2 1/2SM FU CLR 04/02 A3005 RMK AO2 SLP176 T00440022=
KSAN 180651Z 02003KT 9SM SCT200 17/12 A3007 RMK AO2 SLP181 T01670122=
KSBA 180653Z AUTO 00000KT 5SM BR CLR 11/10 A3004 RMK AO2 SLP173 T01060100=
KSBD 180700Z AUTO 12003KT 10SM CLR 13/03 A3007 RMK AO2 T01310026=
KSBP 180656Z AUTO 07005KT 5SM BR CLR 11/09 A3006 RMK AO2 SLP177 T01110089=
KSCK 180655Z 00000KT 2SM HZ OVC010 04/01 A3005 RMK AO2 SLP175 T00440006=
KSDB 180653Z AUTO 22006KT 10SM CLR 11/M03 A3012 RMK AO2 SLP164 T01061033 $=
KSDM 180653Z AUTO 07003KT 10SM CLR 12/06 A3006 RMK AO2 SLP175 T01220056=
KSEE 180655Z AUTO 00000KT 10SM 12/08 A3005 RMK AO2=
KSFO 180656Z 19004KT 5SM HZ FU BKN023 10/07 A3006 RMK AO2 SLP178 FU BKN023
 T01000067 $=
KSIY 180653Z AUTO 00000KT 10SM CLR M01/M08 A3015 RMK AO2 SLP228 T10061078 $=
KSJC 180653Z 00000KT 3SM HZ FEW001 SCT012 BKN033 09/06 A3008 RMK AO2 SLP184 FU
 FEW001 FU SCT012 FU BKN033 T00940061 $=
KSLI 180658Z AUTO 00000KT 8SM CLR 15/14 A3005 RMK AO2 SLP179 T01500140=
KSMF 180653Z 04005KT 2SM FU HZ FEW017 04/02 A3005 RMK AO2 SLP175 FU FEW017
 T00440022=
KSMO 180651Z AUTO 03003KT 10SM CLR 16/11 A3006 RMK AO2 SLP177 T01610111=
KSMX 180651Z AUTO 00000KT 3SM BR SCT014 BKN019 11/09 A3006 RMK AO2 SLP181
 T01110094=
KSNA 180653Z 00000KT 8SM BKN180 BKN230 16/12 A3006 RMK AO2 SLP178 LAST
 T01560117=
KSNS 180653Z AUTO 00000KT 4SM HZ OVC015 12/08 A3007 RMK AO2 SLP192 T01170083=
KSQL 180655Z AUTO 00000KT 5SM BR OVC020 08/07 A3007 RMK AO2=
KSTS 180653Z AUTO 00000KT 1/4SM FG VV015 03/03 A3006 RMK AO2 SLP173 T00330033=
KSUU 180658Z AUTO 00000KT 4SM HZ CLR 02/M03 A3005 RMK AO2 SLP183 T00191026 $=
KSVE 180655Z AUTO 28005KT 10SM CLR M01/M07 A3021 RMK AO2=
KTRK 180655Z AUTO 00000KT 10SM CLR M05/M10 A3023 RMK AO2=
KTRM 180652Z AUTO 01003KT 10SM CLR 11/03 A3000 RMK AO2 SLP160 T01110028=
KTVL 180653Z AUTO 00000KT 9SM CLR M04/M09 A3020 RMK AO2 SLP220 T10441094=
KUKI 180656Z AUTO 00000KT 4SM HZ CLR 03/M02 A3007 RMK AO2 SLP181 T00281022=
KVBG 180658Z AUTO 14004KT 7SM CLR 09/08 A3005 RMK AO2 SLP179 T00900084=
KVCB 180653Z AUTO 00000KT 4SM HZ OVC014 04/M02 A3006 RMK AO2 SLP178 T00391017=
KVIS 180656Z AUTO 08003KT 3SM HZ CLR 06/01 A3006 RMK AO2 SLP188 T00560011=
KVNY 180651Z AUTO 00000KT 8SM CLR 15/09 A3005 RMK AO2 SLP171 T01500089=
KWJF 180656Z AUTO 00000KT 10SM CLR 08/M06 A3007 RMK AO2 SLP181 T00831056=
KWVI 180653Z AUTO 33004KT 4SM BR SCT013 07/07 A3008 RMK AO2 SLP186 T00720067=